createdAt,value
2022-11-29T00:01:00.021Z,98846.03
2022-11-29T00:03:28.548Z,98839.16
2022-11-29T00:05:56.546Z,98841.59
2022-11-29T00:08:25.580Z,98848.78
2022-11-29T00:10:53.609Z,98829.84
2022-11-29T00:13:21.437Z,98834.97
2022-11-29T00:15:49.011Z,98839.13
2022-11-29T00:18:17.026Z,98845.22
2022-11-29T00:20:44.652Z,98843.44
2022-11-29T00:23:12.379Z,98842.59
2022-11-29T00:25:41.554Z,98834.78
2022-11-29T00:28:09.300Z,98840.75
2022-11-29T00:30:37.092Z,98841.66
2022-11-29T00:33:04.774Z,98836.75
2022-11-29T00:35:32.945Z,98842.66
2022-11-29T00:38:00.580Z,98813.63
2022-11-29T00:40:28.440Z,98832.38
2022-11-29T00:42:57.498Z,98836.69
2022-11-29T00:45:25.258Z,98838.22
2022-11-29T00:47:52.853Z,98846.84
2022-11-29T00:50:20.411Z,98816.81
2022-11-29T00:52:48.181Z,98846.03
2022-11-29T00:55:16.088Z,98847.88
2022-11-29T00:57:43.779Z,98838.41
2022-11-29T01:00:14.289Z,98830.59
2022-11-29T01:02:42.333Z,98835.97
2022-11-29T01:05:10.496Z,98840.13
2022-11-29T01:07:38.148Z,98853.00
2022-11-29T01:10:07.310Z,98847.88
2022-11-29T01:12:37.403Z,98818.00
2022-11-29T01:15:05.540Z,98829.06
2022-11-29T01:17:35.886Z,98855.72
2022-11-29T01:20:04.218Z,98845.53
2022-11-29T01:22:32.110Z,98852.25
2022-11-29T01:24:59.794Z,98847.97
2022-11-29T01:27:27.582Z,98809.66
2022-11-29T01:29:55.247Z,98866.06
2022-11-29T01:32:22.963Z,98835.25
2022-11-29T01:34:51.917Z,98843.06
2022-11-29T01:37:19.583Z,98843.00
2022-11-29T01:39:47.196Z,98846.72
2022-11-29T01:42:15.382Z,98851.84
2022-11-29T01:45:06.440Z,98848.34
2022-11-29T01:47:34.573Z,98853.53
2022-11-29T01:50:04.346Z,98857.75
2022-11-29T01:52:33.880Z,98875.72
2022-11-29T01:55:05.766Z,98868.84
2022-11-29T01:57:35.173Z,98848.28
2022-11-29T02:00:08.551Z,98848.28
2022-11-29T02:02:38.310Z,98875.00
2022-11-29T02:05:08.876Z,98868.19
2022-11-29T02:07:36.913Z,98860.66
2022-11-29T02:10:05.532Z,98878.78
2022-11-29T02:12:41.233Z,98874.34
2022-11-29T02:15:18.334Z,98877.78
2022-11-29T02:17:55.824Z,98884.78
2022-11-29T02:20:52.494Z,98887.13
2022-11-29T02:24:01.457Z,98877.88
2022-11-29T02:26:43.593Z,98871.75
2022-11-29T02:29:33.071Z,98882.25
2022-11-29T02:32:34.445Z,98864.25
2022-11-29T02:35:09.308Z,98856.38
2022-11-29T02:37:55.513Z,98863.47
2022-11-29T02:40:36.415Z,98885.91
2022-11-29T02:43:37.991Z,98852.47
2022-11-29T02:46:17.164Z,98861.09
2022-11-29T02:48:55.769Z,98890.28
2022-11-29T02:51:29.165Z,98873.19
2022-11-29T02:54:00.955Z,98874.94
2022-11-29T02:56:33.254Z,98869.69
2022-11-29T02:59:04.818Z,98861.13
2022-11-29T03:01:37.014Z,98881.56
2022-11-29T03:04:11.142Z,98887.66
2022-11-29T03:06:44.936Z,98885.94
2022-11-29T03:09:20.405Z,98875.88
2022-11-29T03:11:52.615Z,98887.53
2022-11-29T03:14:25.433Z,98867.91
2022-11-29T03:17:01.867Z,98885.91
2022-11-29T03:19:40.834Z,98888.34
2022-11-29T03:22:13.516Z,98890.06
2022-11-29T03:24:47.021Z,98885.94
2022-11-29T03:27:18.585Z,98860.44
2022-11-29T03:29:49.968Z,98888.59
2022-11-29T03:32:22.929Z,98893.84
2022-11-29T03:34:59.013Z,98894.66
2022-11-29T03:37:31.123Z,98880.00
2022-11-29T03:40:04.167Z,98872.09
2022-11-29T03:42:34.655Z,98884.22
2022-11-29T03:45:07.125Z,98908.19
2022-11-29T03:47:37.249Z,98900.50
2022-11-29T03:50:07.442Z,98888.59
2022-11-29T03:52:43.982Z,98906.34
2022-11-29T03:55:20.388Z,98875.69
2022-11-29T03:57:55.745Z,98921.19
2022-11-29T04:00:23.747Z,98911.88
2022-11-29T04:03:18.250Z,98906.88
2022-11-29T04:05:56.315Z,98910.34
2022-11-29T04:08:49.420Z,98917.19
2022-11-29T04:11:37.274Z,98912.81
2022-11-29T04:14:28.989Z,98913.84
2022-11-29T04:17:32.411Z,98922.56
2022-11-29T04:20:39.077Z,98911.50
2022-11-29T04:23:53.101Z,98923.72
2022-11-29T04:26:35.079Z,98930.66
2022-11-29T04:29:12.492Z,98922.94
2022-11-29T04:31:53.985Z,98929.97
2022-11-29T04:34:40.811Z,98928.19
2022-11-29T04:37:25.330Z,98929.06
2022-11-29T04:40:05.793Z,98929.88
2022-11-29T04:42:58.337Z,98931.69
2022-11-29T04:45:40.869Z,98929.97
2022-11-29T04:48:32.682Z,98937.84
2022-11-29T04:51:09.978Z,98935.88
2022-11-29T04:53:48.420Z,98942.72
2022-11-29T04:56:24.522Z,98943.53
2022-11-29T04:58:58.771Z,98941.69
2022-11-29T05:01:33.245Z,98916.25
2022-11-29T05:04:04.297Z,98936.84
2022-11-29T05:06:36.493Z,98935.88
2022-11-29T05:09:11.532Z,98957.41
2022-11-29T05:11:49.230Z,98955.56
2022-11-29T05:14:23.725Z,98962.66
2022-11-29T05:16:55.522Z,98953.94
2022-11-29T05:19:47.966Z,98966.03
2022-11-29T05:22:24.506Z,98977.41
2022-11-29T05:24:57.540Z,98970.50
2022-11-29T05:27:36.530Z,98965.34
2022-11-29T05:30:07.477Z,98968.22
2022-11-29T05:32:37.265Z,98973.69
2022-11-29T05:35:27.814Z,98983.03
2022-11-29T05:37:58.142Z,98956.41
2022-11-29T05:40:49.541Z,98958.00
2022-11-29T05:43:31.393Z,98974.38
2022-11-29T05:46:04.053Z,98987.13
2022-11-29T05:48:35.829Z,98932.19
2022-11-29T05:51:17.400Z,98959.69
2022-11-29T05:53:56.616Z,98982.88
2022-11-29T05:56:30.534Z,98981.16
2022-11-29T05:59:01.750Z,98990.66
2022-11-29T06:01:33.294Z,98988.00
2022-11-29T06:04:07.997Z,98978.75
2022-11-29T06:06:44.697Z,98967.47
2022-11-29T06:09:17.184Z,99001.09
2022-11-29T06:11:46.551Z,99002.81
2022-11-29T06:14:28.498Z,98978.06
2022-11-29T06:17:07.299Z,99017.66
2022-11-29T06:19:46.647Z,98990.34
2022-11-29T06:22:24.776Z,98992.72
2022-11-29T06:25:01.442Z,99021.03
2022-11-29T06:27:40.728Z,99019.25
2022-11-29T06:30:12.658Z,98998.00
2022-11-29T06:32:46.176Z,98992.81
2022-11-29T06:35:35.325Z,99018.38
2022-11-29T06:38:07.044Z,99027.88
2022-11-29T06:40:35.165Z,98997.19
2022-11-29T06:43:03.257Z,99004.09
2022-11-29T06:45:33.287Z,99029.59
2022-11-29T06:48:03.108Z,99001.06
2022-11-29T06:50:36.092Z,99015.72
2022-11-29T06:53:09.002Z,99026.06
2022-11-29T06:55:42.336Z,99015.59
2022-11-29T06:58:16.182Z,99008.63
2022-11-29T07:00:51.584Z,99048.34
2022-11-29T07:03:30.197Z,99044.09
2022-11-29T07:05:58.206Z,99027.00
2022-11-29T07:08:26.529Z,99038.94
2022-11-29T07:10:55.641Z,99053.53
2022-11-29T07:13:23.798Z,99050.91
2022-11-29T07:15:59.927Z,99059.34
2022-11-29T07:18:32.242Z,99038.56
2022-11-29T07:21:07.119Z,99064.13
2022-11-29T07:23:37.125Z,99069.38
2022-11-29T07:26:17.276Z,99068.56
2022-11-29T07:28:52.911Z,99060.81
2022-11-29T07:31:27.437Z,99070.28
2022-11-29T07:34:03.348Z,99074.47
2022-11-29T07:36:35.706Z,99084.00
2022-11-29T07:39:13.529Z,99079.47
2022-11-29T07:41:44.745Z,99083.53
2022-11-29T07:44:17.922Z,99080.19
2022-11-29T07:46:47.026Z,99067.19
2022-11-29T07:49:14.804Z,99080.00
2022-11-29T07:51:42.512Z,99086.88
2022-11-29T07:54:10.820Z,99091.16
2022-11-29T07:56:38.373Z,99092.88
2022-11-29T07:59:10.912Z,99083.25
2022-11-29T08:01:38.609Z,99088.28
2022-11-29T08:04:07.614Z,99092.66
2022-11-29T08:06:35.435Z,99094.31
2022-11-29T08:09:03.395Z,99098.63
2022-11-29T08:11:31.159Z,99097.59
2022-11-29T08:13:59.002Z,99095.06
2022-11-29T08:16:26.948Z,99101.91
2022-11-29T08:18:54.805Z,99106.25
2022-11-29T08:21:23.776Z,99098.66
2022-11-29T08:23:51.952Z,99109.91
2022-11-29T08:26:20.868Z,99114.25
2022-11-29T08:28:52.092Z,99117.91
2022-11-29T08:31:20.883Z,99115.41
2022-11-29T08:33:48.679Z,99118.84
2022-11-29T08:36:18.190Z,99120.75
2022-11-29T08:38:47.301Z,99111.09
2022-11-29T08:41:15.939Z,99119.72
2022-11-29T08:43:44.109Z,99125.03
2022-11-29T08:46:18.082Z,99125.00
2022-11-29T08:48:46.318Z,99127.66
2022-11-29T08:51:14.488Z,99116.53
2022-11-29T08:53:45.983Z,99130.91
2022-11-29T08:57:04.320Z,99135.47
2022-11-29T08:59:06.593Z,99133.63
2022-11-29T09:01:34.285Z,99135.47
2022-11-29T09:04:03.504Z,99137.81
2022-11-29T09:06:32.831Z,99143.94
2022-11-29T09:09:01.897Z,99138.59
2022-11-29T09:11:31.654Z,99146.38
2022-11-29T09:14:01.092Z,99148.03
2022-11-29T09:16:30.868Z,99140.19
2022-11-29T09:18:58.544Z,99158.84
2022-11-29T09:21:27.470Z,99153.09
2022-11-29T09:23:58.693Z,99161.63
2022-11-29T09:26:29.103Z,99142.59
2022-11-29T09:29:01.160Z,99150.97
2022-11-29T09:31:29.573Z,99135.50
2022-11-29T09:33:57.647Z,99137.69
2022-11-29T09:36:28.941Z,99165.22
2022-11-29T09:38:57.083Z,99134.34
2022-11-29T09:41:46.971Z,99148.91
2022-11-29T09:44:22.523Z,99141.34
2022-11-29T09:46:58.656Z,99166.44
2022-11-29T09:49:52.707Z,99185.31
2022-11-29T09:52:28.606Z,99174.03
2022-11-29T09:55:01.612Z,99179.06
2022-11-29T09:57:29.669Z,99180.94
2022-11-29T10:00:00.502Z,99151.47
2022-11-29T10:02:33.941Z,99176.47
2022-11-29T10:05:04.594Z,99183.38
2022-11-29T10:07:36.161Z,99175.75
2022-11-29T10:10:08.442Z,99154.91
2022-11-29T10:12:39.197Z,99181.47
2022-11-29T10:15:13.801Z,99176.38
2022-11-29T10:17:44.391Z,99181.47
2022-11-29T10:20:15.492Z,99186.00
2022-11-29T10:22:49.280Z,99189.38
2022-11-29T10:25:21.514Z,99167.72
2022-11-29T10:27:49.295Z,99178.81
2022-11-29T10:30:18.966Z,99187.47
2022-11-29T10:32:48.085Z,99178.00
2022-11-29T10:35:17.585Z,99184.09
2022-11-29T10:38:01.556Z,99159.16
2022-11-29T10:40:35.605Z,99183.03
2022-11-29T10:43:03.578Z,99183.19
2022-11-29T10:45:34.955Z,99183.09
2022-11-29T10:48:04.562Z,99192.53
2022-11-29T10:50:34.833Z,99188.97
2022-11-29T10:53:06.150Z,99193.31
2022-11-29T10:55:37.845Z,99188.09
2022-11-29T10:58:13.691Z,99175.09
2022-11-29T11:00:48.556Z,99190.53
2022-11-29T11:03:17.768Z,99181.94
2022-11-29T11:05:57.912Z,99185.34
2022-11-29T11:08:26.432Z,99186.81
2022-11-29T11:11:01.236Z,99194.78
2022-11-29T11:13:31.437Z,99185.81
2022-11-29T11:16:09.594Z,99186.88
2022-11-29T11:18:38.435Z,99190.28
2022-11-29T11:21:09.515Z,99173.69
2022-11-29T11:23:42.730Z,99184.81
2022-11-29T11:26:13.136Z,99173.78
2022-11-29T11:28:44.772Z,99196.13
2022-11-29T11:31:14.400Z,99181.94
2022-11-29T11:33:43.030Z,99193.19
2022-11-29T11:36:14.001Z,99192.25
2022-11-29T11:38:43.374Z,99188.19
2022-11-29T11:41:19.171Z,99181.56
2022-11-29T11:43:55.821Z,99199.34
2022-11-29T11:46:25.070Z,99188.25
2022-11-29T11:48:52.799Z,99198.34
2022-11-29T11:51:23.860Z,99193.38
2022-11-29T11:53:53.387Z,99199.81
2022-11-29T11:56:21.773Z,99188.72
2022-11-29T11:58:51.740Z,99211.31
2022-11-29T12:01:27.371Z,99211.22
2022-11-29T12:03:59.235Z,99200.91
2022-11-29T12:06:30.274Z,99180.03
2022-11-29T12:09:04.664Z,99202.50
2022-11-29T12:11:37.883Z,99211.88
2022-11-29T12:14:06.748Z,99193.66
2022-11-29T12:16:37.442Z,99205.47
2022-11-29T12:19:13.706Z,99194.31
2022-11-29T12:21:44.945Z,99186.19
2022-11-29T12:24:20.068Z,99208.75
2022-11-29T12:26:56.996Z,99207.00
2022-11-29T12:29:26.777Z,99220.06
2022-11-29T12:32:03.453Z,99218.19
2022-11-29T12:34:45.797Z,99217.13
2022-11-29T12:37:19.826Z,99219.81
2022-11-29T12:39:58.861Z,99226.56
2022-11-29T12:42:41.522Z,99225.00
2022-11-29T12:45:26.136Z,99220.91
2022-11-29T12:48:04.578Z,99220.47
2022-11-29T12:50:39.349Z,99222.50
2022-11-29T12:53:16.692Z,99224.69
2022-11-29T12:55:50.014Z,99217.09
2022-11-29T12:58:23.115Z,99216.22
2022-11-29T13:00:55.654Z,99214.84
2022-11-29T13:03:29.994Z,99216.00
2022-11-29T13:06:07.474Z,99205.97
2022-11-29T13:08:47.572Z,99218.75
2022-11-29T13:11:18.384Z,99223.91
2022-11-29T13:13:48.714Z,99220.19
2022-11-29T13:16:31.271Z,99218.53
2022-11-29T13:19:03.408Z,99218.63
2022-11-29T13:21:33.589Z,99219.09
2022-11-29T13:24:09.819Z,99225.72
2022-11-29T13:26:39.089Z,99232.88
2022-11-29T13:29:08.413Z,99223.09
2022-11-29T13:31:36.422Z,99236.22
2022-11-29T13:34:10.119Z,99205.31
2022-11-29T13:36:49.467Z,99237.19
2022-11-29T13:39:30.746Z,99236.97
2022-11-29T13:42:06.598Z,99233.38
2022-11-29T13:44:38.160Z,99242.13
2022-11-29T13:47:08.238Z,99238.69
2022-11-29T13:49:54.784Z,99241.97
2022-11-29T13:52:39.654Z,99240.47
2022-11-29T13:55:28.580Z,99244.00
2022-11-29T13:58:16.269Z,99245.47
2022-11-29T14:00:50.382Z,99223.28
2022-11-29T14:03:28.424Z,99246.78
2022-11-29T14:06:09.756Z,99259.41
2022-11-29T14:09:10.185Z,99263.25
2022-11-29T14:11:30.215Z,99262.28
2022-11-29T14:14:02.213Z,99265.09
2022-11-29T14:16:33.741Z,99263.38
2022-11-29T14:19:19.508Z,99265.09
2022-11-29T14:22:31.347Z,99265.91
2022-11-29T14:25:21.685Z,99267.88
2022-11-29T14:28:08.044Z,99266.97
2022-11-29T14:30:50.357Z,99273.44
2022-11-29T14:33:27.945Z,99267.94
2022-11-29T14:36:09.590Z,99268.09
2022-11-29T14:38:44.328Z,99271.53
2022-11-29T14:41:23.298Z,99274.16
2022-11-29T14:43:50.891Z,99268.13
2022-11-29T14:46:29.533Z,99284.66
2022-11-29T14:49:01.929Z,99278.63
2022-11-29T14:51:31.676Z,99280.34
2022-11-29T14:54:07.485Z,99277.72
2022-11-29T14:56:42.349Z,99282.94
2022-11-29T14:59:48.816Z,99284.75
2022-11-29T15:02:27.024Z,99296.31
2022-11-29T15:04:56.884Z,99288.38
2022-11-29T15:07:28.553Z,99298.16
2022-11-29T15:09:58.596Z,99291.34
2022-11-29T15:12:29.331Z,99288.88
2022-11-29T15:15:07.664Z,99299.47
2022-11-29T15:17:42.605Z,99298.59
2022-11-29T15:20:37.502Z,99303.66
2022-11-29T15:23:07.247Z,99313.44
2022-11-29T15:25:36.445Z,99306.44
2022-11-29T15:28:07.203Z,99319.56
2022-11-29T15:30:36.462Z,99308.25
2022-11-29T15:33:06.257Z,99318.56
2022-11-29T15:35:35.146Z,99317.16
2022-11-29T15:38:03.742Z,99324.75
2022-11-29T15:40:35.505Z,99322.13
2022-11-29T15:43:12.785Z,99323.03
2022-11-29T15:45:40.482Z,99315.22
2022-11-29T15:48:13.875Z,99331.88
2022-11-29T15:50:45.958Z,99331.19
2022-11-29T15:53:18.531Z,99321.66
2022-11-29T15:55:49.441Z,99335.72
2022-11-29T15:58:18.367Z,99337.34
2022-11-29T16:00:49.590Z,99334.19
2022-11-29T16:03:21.226Z,99341.66
2022-11-29T16:05:51.410Z,99342.75
2022-11-29T16:08:20.553Z,99340.53
2022-11-29T16:10:52.531Z,99339.56
2022-11-29T16:13:39.167Z,99339.94
2022-11-29T16:16:18.027Z,99348.69
2022-11-29T16:18:46.950Z,99344.53
2022-11-29T16:21:26.594Z,99338.59
2022-11-29T16:23:54.908Z,99348.31
2022-11-29T16:26:24.151Z,99345.88
2022-11-29T16:28:54.678Z,99348.44
2022-11-29T16:31:23.788Z,99350.13
2022-11-29T16:33:53.589Z,99350.13
2022-11-29T16:36:24.058Z,99346.78
2022-11-29T16:38:53.645Z,99325.44
2022-11-29T16:41:33.215Z,99340.97
2022-11-29T16:44:03.293Z,99353.09
2022-11-29T16:46:36.404Z,99354.97
2022-11-29T16:49:34.789Z,99356.06
2022-11-29T16:52:03.114Z,99361.97
2022-11-29T16:54:33.924Z,99362.22
2022-11-29T16:57:04.897Z,99360.50
2022-11-29T16:59:35.401Z,99353.69
2022-11-29T17:02:03.122Z,99370.22
2022-11-29T17:04:30.854Z,99371.28
2022-11-29T17:06:58.480Z,99356.72
2022-11-29T17:09:27.889Z,99354.09
2022-11-29T17:11:56.119Z,99354.09
2022-11-29T17:14:24.086Z,99356.81
2022-11-29T17:16:53.209Z,99362.94
2022-11-29T17:19:25.157Z,99366.47
2022-11-29T17:21:53.576Z,99362.13
2022-11-29T17:24:22.495Z,99366.59
2022-11-29T17:26:50.127Z,99373.69
2022-11-29T17:29:18.490Z,99375.38
2022-11-29T17:31:47.043Z,99376.19
2022-11-29T17:34:16.070Z,99386.59
2022-11-29T17:36:45.040Z,99383.03
2022-11-29T17:39:12.757Z,99387.72
2022-11-29T17:41:40.369Z,99389.50
2022-11-29T17:44:08.149Z,99392.28
2022-11-29T17:46:37.101Z,99390.66
2022-11-29T17:49:06.947Z,99388.16
2022-11-29T17:51:53.923Z,99383.75
2022-11-29T17:54:21.933Z,99391.69
2022-11-29T17:56:49.905Z,99387.56
2022-11-29T17:59:17.524Z,99392.81
2022-11-29T18:01:47.009Z,99390.41
2022-11-29T18:04:14.924Z,99405.09
2022-11-29T18:06:45.772Z,99389.47
2022-11-29T18:09:13.836Z,99411.19
2022-11-29T18:11:48.166Z,99401.59
2022-11-29T18:14:18.163Z,99403.22
2022-11-29T18:16:46.366Z,99405.97
2022-11-29T18:19:15.335Z,99414.44
2022-11-29T18:21:44.437Z,99411.97
2022-11-29T18:24:12.380Z,99417.88
2022-11-29T18:26:40.442Z,99417.88
2022-11-29T18:29:08.989Z,99404.13
2022-11-29T18:31:37.895Z,99407.53
2022-11-29T18:34:09.501Z,99420.78
2022-11-29T18:36:39.142Z,99405.94
2022-11-29T18:39:09.667Z,99417.16
2022-11-29T18:41:38.224Z,99418.13
2022-11-29T18:44:07.138Z,99423.50
2022-11-29T18:46:36.814Z,99423.38
2022-11-29T18:49:05.476Z,99428.81
2022-11-29T18:51:33.193Z,99432.34
2022-11-29T18:54:01.139Z,99429.88
2022-11-29T18:59:18.841Z,99443.66
2022-11-29T19:01:48.026Z,99437.38
2022-11-29T19:04:17.685Z,99442.66
2022-11-29T19:06:45.778Z,99440.03
2022-11-29T19:09:14.574Z,99449.13
2022-11-29T19:11:42.199Z,99444.38
2022-11-29T19:14:12.560Z,99435.94
2022-11-29T19:16:44.138Z,99440.91
2022-11-29T19:19:12.018Z,99443.66
2022-11-29T19:21:40.669Z,99449.69
2022-11-29T19:24:13.749Z,99450.69
2022-11-29T19:26:44.242Z,99451.53
2022-11-29T19:29:12.108Z,99433.44
2022-11-29T19:31:41.231Z,99446.53
2022-11-29T19:34:09.047Z,99447.44
2022-11-29T19:36:42.412Z,99419.00
2022-11-29T19:39:10.799Z,99447.47
2022-11-29T19:41:38.408Z,99438.22
2022-11-29T19:44:07.536Z,99449.50
2022-11-29T19:46:36.559Z,99452.91
2022-11-29T19:49:07.678Z,99446.16
2022-11-29T19:51:35.730Z,99450.41
2022-11-29T19:54:05.635Z,99452.91
2022-11-29T19:56:33.757Z,99455.31
2022-11-29T19:59:01.334Z,99443.25
2022-11-29T20:01:37.716Z,99451.59
2022-11-29T20:04:19.974Z,99451.50
2022-11-29T20:07:07.861Z,99453.31
2022-11-29T20:09:35.751Z,99458.47
2022-11-29T20:12:03.462Z,99457.59
2022-11-29T20:14:31.106Z,99455.84
2022-11-29T20:16:58.744Z,99456.78
2022-11-29T20:19:27.670Z,99449.94
2022-11-29T20:21:55.315Z,99457.56
2022-11-29T20:24:23.108Z,99459.47
2022-11-29T20:26:51.130Z,99459.34
2022-11-29T20:29:19.263Z,99460.13
2022-11-29T20:31:50.746Z,99456.66
2022-11-29T20:34:18.985Z,99469.63
2022-11-29T20:37:06.760Z,99464.44
2022-11-29T20:39:39.092Z,99469.63
2022-11-29T20:42:20.335Z,99469.59
2022-11-29T20:44:51.557Z,99458.44
2022-11-29T20:47:21.214Z,99458.50
2022-11-29T20:49:49.110Z,99462.91
2022-11-29T20:52:29.938Z,99476.84
2022-11-29T20:54:57.568Z,99451.88
2022-11-29T20:57:25.197Z,99488.03
2022-11-29T20:59:52.774Z,99467.28
2022-11-29T21:02:21.316Z,99480.09
2022-11-29T21:04:49.148Z,99470.84
2022-11-29T21:07:16.921Z,99480.31
2022-11-29T21:09:46.320Z,99490.84
2022-11-29T21:12:14.754Z,99489.91
2022-11-29T21:14:42.979Z,99482.91
2022-11-29T21:17:11.201Z,99483.94
2022-11-29T21:19:39.993Z,99489.84
2022-11-29T21:22:13.692Z,99491.56
2022-11-29T21:24:51.881Z,99485.59
2022-11-29T21:27:23.531Z,99486.59
2022-11-29T21:29:51.922Z,99492.69
2022-11-29T21:32:23.582Z,99491.94
2022-11-29T21:34:51.391Z,99486.00
2022-11-29T21:37:21.209Z,99495.50
2022-11-29T21:39:52.056Z,99500.75
2022-11-29T21:42:20.360Z,99485.16
2022-11-29T21:44:48.330Z,99492.28
2022-11-29T21:47:16.183Z,99493.88
2022-11-29T21:49:44.058Z,99490.50
2022-11-29T21:52:11.662Z,99490.44
2022-11-29T21:54:39.854Z,99497.44
2022-11-29T21:57:08.948Z,99494.09
2022-11-29T21:59:36.635Z,99489.75
2022-11-29T22:02:04.612Z,99474.22
2022-11-29T22:04:32.309Z,99495.06
2022-11-29T22:06:59.904Z,99491.59
2022-11-29T22:09:27.586Z,99486.44
2022-11-29T22:11:55.266Z,99496.00
2022-11-29T22:14:24.304Z,99494.25
2022-11-29T22:16:53.523Z,99486.47
2022-11-29T22:19:23.030Z,99489.97
2022-11-29T22:21:52.277Z,99486.47
2022-11-29T22:24:20.960Z,99485.63
2022-11-29T22:26:49.687Z,99472.78
2022-11-29T22:29:17.609Z,99485.78
2022-11-29T22:31:48.091Z,99485.75
2022-11-29T22:34:15.890Z,99489.16
2022-11-29T22:36:43.638Z,99491.75
2022-11-29T22:39:11.350Z,99469.41
2022-11-29T22:41:40.218Z,99493.59
2022-11-29T22:44:08.297Z,99495.34
2022-11-29T22:46:36.343Z,99487.59
2022-11-29T22:49:05.520Z,99498.00
2022-11-29T22:51:36.143Z,99496.34
2022-11-29T22:54:06.148Z,99493.84
2022-11-29T22:56:36.088Z,99508.47
2022-11-29T22:59:04.631Z,99503.22
2022-11-29T23:01:34.124Z,99504.09
2022-11-29T23:04:04.710Z,99502.28
2022-11-29T23:06:35.307Z,99509.22
2022-11-29T23:09:07.055Z,99501.28
2022-11-29T23:11:34.644Z,99505.59
2022-11-29T23:14:02.402Z,99509.09
2022-11-29T23:16:30.683Z,99510.91
2022-11-29T23:18:59.610Z,99508.22
2022-11-29T23:21:29.186Z,99506.34
2022-11-29T23:24:00.753Z,99507.31
2022-11-29T23:26:30.391Z,99517.78
2022-11-29T23:28:58.221Z,99517.72
2022-11-29T23:31:25.844Z,99519.38
2022-11-29T23:33:53.573Z,99513.44
2022-11-29T23:36:21.207Z,99515.06
2022-11-29T23:38:49.430Z,99519.38
2022-11-29T23:41:18.670Z,99520.25
2022-11-29T23:43:46.324Z,99520.34
2022-11-29T23:46:15.700Z,99516.88
2022-11-29T23:48:43.420Z,99514.25
2022-11-29T23:51:11.711Z,99515.94
2022-11-29T23:53:39.829Z,99507.38
2022-11-29T23:56:10.778Z,99513.31
2022-11-29T23:58:39.810Z,99508.97
